Burnwell, Kentucky
Current Conditions -  °F | °C
As of 8:35 AM on Saturday 25 Oct 2014 (Local Time) from KPBX Reporting Station
Moderate Fog Moderate Fog  
Wind Chill: 36°   Ceiling: 100
Heat Index: 40°   Visibility: 0mi
Dew Point: 39°   Wind: 5mph
Humidity: 99%   Direction: 170°S
Pressure: 30.07"   Gusts: NA
Location:  37.632°N, 82.2603°W
Report Text: KPBX 251235Z AUTO 17004KT M1/4SM FG OVC001 04/04 A3007 RMK AO2 T00420041
Loading
Personal Weather Stations






























Interactive Weather Map
Tropical Storm Tracking
New forecast layout! Learn more

10-Day Weather Forecast

Advertisements
Track Severe Weather on mobile